createdAt,value
2018-07-21T00:01:35.932Z,7.08
2018-07-21T00:04:03.760Z,6.58
2018-07-21T00:06:31.456Z,6.45
2018-07-21T00:08:59.287Z,6.25
2018-07-21T00:11:28.224Z,5.83
2018-07-21T00:13:55.993Z,6.57
2018-07-21T00:16:23.747Z,6.53
2018-07-21T00:18:51.538Z,9.18
2018-07-21T00:21:19.344Z,11.75
2018-07-21T00:23:47.241Z,12.33
2018-07-21T00:26:14.918Z,11.68
2018-07-21T00:28:42.768Z,10.98
2018-07-21T00:31:10.484Z,11.80
2018-07-21T00:33:38.166Z,12.95
2018-07-21T00:36:05.901Z,12.13
2018-07-21T00:38:33.536Z,11.60
2018-07-21T00:41:01.423Z,9.30
2018-07-21T00:43:29.183Z,9.25
2018-07-21T00:45:57.299Z,7.90
2018-07-21T00:48:25.076Z,6.90
2018-07-21T00:50:52.752Z,7.12
2018-07-21T00:53:20.653Z,6.35
2018-07-21T00:55:49.326Z,6.05
2018-07-21T00:58:17.641Z,6.08
2018-07-21T01:00:45.565Z,5.35
2018-07-21T01:03:13.342Z,5.65
2018-07-21T01:05:41.549Z,5.92
2018-07-21T01:08:09.169Z,6.67
2018-07-21T01:10:37.012Z,6.33
2018-07-21T01:13:04.973Z,5.40
2018-07-21T01:15:32.901Z,4.72
2018-07-21T01:18:00.892Z,5.42
2018-07-21T01:20:28.623Z,6.17
2018-07-21T01:22:56.474Z,5.85
2018-07-21T01:25:24.396Z,5.65
2018-07-21T01:27:52.189Z,5.97
2018-07-21T01:30:19.871Z,7.15
2018-07-21T01:32:47.615Z,7.42
2018-07-21T01:35:15.730Z,7.40
2018-07-21T01:37:43.518Z,6.50
2018-07-21T01:40:11.652Z,5.92
2018-07-21T01:42:39.664Z,6.72
2018-07-21T01:45:07.517Z,5.50
2018-07-21T01:47:35.152Z,5.60
2018-07-21T01:50:03.256Z,5.37
2018-07-21T01:52:31.092Z,5.53
2018-07-21T01:54:58.940Z,6.50
2018-07-21T01:57:26.764Z,6.70
2018-07-21T01:59:54.475Z,6.65
2018-07-21T02:02:22.713Z,6.20
2018-07-21T02:04:50.371Z,5.72
2018-07-21T02:07:18.348Z,5.37
2018-07-21T02:09:46.428Z,5.70
2018-07-21T02:12:14.545Z,6.85
2018-07-21T02:14:42.263Z,5.97
2018-07-21T02:17:10.411Z,5.75
2018-07-21T02:19:38.092Z,6.28
2018-07-21T02:22:06.022Z,6.25
2018-07-21T02:24:33.866Z,6.30
2018-07-21T02:27:02.325Z,8.78
2018-07-21T02:29:30.099Z,10.10
2018-07-21T02:31:57.856Z,9.03
2018-07-21T02:34:25.577Z,8.63
2018-07-21T02:36:53.370Z,6.58
2018-07-21T02:39:21.168Z,6.65
2018-07-21T02:41:48.764Z,5.42
2018-07-21T02:44:16.503Z,6.80
2018-07-21T02:46:44.202Z,7.50
2018-07-21T02:49:11.792Z,6.92
2018-07-21T02:51:39.850Z,7.70
2018-07-21T02:54:07.511Z,9.80
2018-07-21T02:56:35.480Z,11.28
2018-07-21T02:59:03.457Z,11.68
2018-07-21T03:01:31.067Z,11.93
2018-07-21T03:03:58.933Z,11.03
2018-07-21T03:06:26.680Z,8.70
2018-07-21T03:08:54.352Z,6.97
2018-07-21T03:11:22.585Z,6.35
2018-07-21T03:13:50.680Z,5.50
2018-07-21T03:16:19.055Z,6.20
2018-07-21T03:18:46.947Z,6.65
2018-07-21T03:21:14.555Z,6.80
2018-07-21T03:23:42.393Z,5.90
2018-07-21T03:26:10.374Z,5.90
2018-07-21T03:28:37.991Z,5.80
2018-07-21T03:31:05.780Z,5.85
2018-07-21T03:33:33.408Z,5.03
2018-07-21T03:36:01.055Z,5.80
2018-07-21T03:38:28.706Z,5.03
2018-07-21T03:40:56.354Z,6.10
2018-07-21T03:43:24.016Z,5.58
2018-07-21T03:45:51.611Z,6.43
2018-07-21T03:48:19.269Z,5.55
2018-07-21T03:50:47.026Z,5.00
2018-07-21T03:53:15.068Z,4.33
2018-07-21T03:55:42.697Z,3.90
2018-07-21T03:58:10.499Z,3.95
2018-07-21T04:00:38.216Z,4.05
2018-07-21T04:03:05.961Z,4.17
2018-07-21T04:05:33.616Z,4.83
2018-07-21T04:08:01.311Z,5.90
2018-07-21T04:10:28.995Z,5.83
2018-07-21T04:12:56.594Z,5.45
2018-07-21T04:15:24.243Z,6.55
2018-07-21T04:17:52.149Z,7.10
2018-07-21T04:20:19.764Z,6.35
2018-07-21T04:22:47.505Z,6.70
2018-07-21T04:25:15.161Z,5.90
2018-07-21T04:27:42.856Z,6.75
2018-07-21T04:30:10.487Z,5.83
2018-07-21T04:32:38.141Z,5.42
2018-07-21T04:35:05.748Z,5.70
2018-07-21T04:37:33.311Z,5.78
2018-07-21T04:40:00.950Z,5.97
2018-07-21T04:42:28.608Z,5.20
2018-07-21T04:44:56.224Z,4.92
2018-07-21T04:47:23.865Z,4.67
2018-07-21T04:49:51.516Z,4.40
2018-07-21T04:52:19.151Z,4.00
2018-07-21T05:00:31.811Z,4.05
2018-07-21T05:02:59.455Z,3.50
2018-07-21T05:05:27.096Z,3.80
2018-07-21T05:07:54.816Z,3.17
2018-07-21T05:10:23.360Z,3.77
2018-07-21T05:12:52.400Z,3.90
2018-07-21T05:15:20.089Z,3.58
2018-07-21T05:17:47.892Z,5.10
2018-07-21T05:20:15.497Z,5.95
2018-07-21T05:22:43.168Z,5.75
2018-07-21T05:25:10.848Z,5.67
2018-07-21T05:27:38.811Z,4.67
2018-07-21T05:30:07.116Z,4.75
2018-07-21T05:32:34.876Z,5.28
2018-07-21T05:35:09.262Z,4.50
2018-07-21T05:37:36.884Z,4.08
2018-07-21T05:40:04.587Z,4.95
2018-07-21T05:42:32.181Z,4.87
2018-07-21T05:45:00.234Z,4.33
2018-07-21T05:47:28.051Z,4.45
2018-07-21T05:49:55.569Z,4.72
2018-07-21T05:52:23.602Z,5.33
2018-07-21T05:54:51.448Z,6.22
2018-07-21T05:57:19.008Z,5.53
2018-07-21T05:59:47.004Z,6.78
2018-07-21T06:02:14.790Z,5.20
2018-07-21T06:04:42.504Z,4.45
2018-07-21T06:07:10.076Z,5.37
2018-07-21T06:09:38.712Z,5.33
2018-07-21T06:12:06.606Z,5.97
2018-07-21T06:14:34.215Z,5.22
2018-07-21T06:17:02.359Z,5.10
2018-07-21T06:19:30.192Z,4.35
2018-07-21T06:21:58.015Z,4.67
2018-07-21T06:24:26.631Z,4.83
2018-07-21T06:26:54.443Z,5.75
2018-07-21T06:29:22.274Z,6.03
2018-07-21T06:31:50.216Z,6.17
2018-07-21T06:34:17.817Z,5.17
2018-07-21T06:36:45.698Z,4.87
2018-07-21T06:39:13.264Z,4.80
2018-07-21T06:41:42.061Z,4.55
2018-07-21T06:44:09.961Z,4.33
2018-07-21T06:46:37.739Z,4.55
2018-07-21T06:49:06.256Z,5.37
2018-07-21T06:51:34.100Z,4.50
2018-07-21T06:54:01.828Z,5.35
2018-07-21T06:56:29.439Z,5.35
2018-07-21T06:58:59.361Z,5.40
2018-07-21T07:01:27.334Z,4.87
2018-07-21T07:03:55.001Z,4.35
2018-07-21T07:06:22.692Z,5.35
2018-07-21T07:08:50.452Z,5.03
2018-07-21T07:11:18.147Z,4.65
2018-07-21T07:13:45.775Z,4.28
2018-07-21T07:16:13.549Z,5.95
2018-07-21T07:18:42.124Z,5.65
2018-07-21T07:21:10.005Z,5.05
2018-07-21T07:23:37.654Z,6.50
2018-07-21T07:26:05.515Z,9.13
2018-07-21T07:28:34.652Z,10.60
2018-07-21T07:31:02.737Z,12.53
2018-07-21T07:33:30.380Z,11.88
2018-07-21T07:35:57.976Z,12.47
2018-07-21T07:38:25.615Z,11.48
2018-07-21T07:40:53.436Z,10.60
2018-07-21T07:43:21.432Z,11.95
2018-07-21T07:45:49.128Z,11.90
2018-07-21T07:48:16.942Z,12.35
2018-07-21T07:50:44.528Z,14.05
2018-07-21T07:53:12.318Z,12.33
2018-07-21T07:55:39.913Z,11.20
2018-07-21T07:58:07.523Z,10.68
2018-07-21T08:00:35.208Z,11.35
2018-07-21T08:03:02.807Z,12.63
2018-07-21T08:05:30.874Z,13.88
2018-07-21T08:07:58.472Z,13.93
2018-07-21T08:10:27.324Z,12.37
2018-07-21T08:12:55.442Z,12.58
2018-07-21T08:15:23.503Z,14.18
2018-07-21T08:17:51.271Z,15.28
2018-07-21T08:20:18.845Z,13.70
2018-07-21T08:22:47.046Z,12.90
2018-07-21T08:25:14.817Z,13.72
2018-07-21T08:27:42.488Z,11.67
2018-07-21T08:30:11.047Z,11.33
2018-07-21T08:32:39.136Z,10.68
2018-07-21T08:35:06.823Z,11.00
2018-07-21T08:37:35.458Z,11.22
2018-07-21T08:40:03.587Z,11.55
2018-07-21T08:42:31.164Z,9.58
2018-07-21T08:44:58.703Z,8.48
2018-07-21T08:47:26.296Z,7.42
2018-07-21T08:49:53.931Z,8.05
2018-07-21T08:52:22.835Z,7.97
2018-07-21T08:54:50.485Z,9.30
2018-07-21T08:57:18.160Z,9.98
2018-07-21T08:59:46.219Z,9.10
2018-07-21T09:02:13.880Z,9.65
2018-07-21T09:04:41.527Z,9.75
2018-07-21T09:07:09.191Z,11.97
2018-07-21T09:09:39.803Z,12.45
2018-07-21T09:12:08.848Z,11.60
2018-07-21T09:14:45.188Z,12.35
2018-07-21T09:17:13.232Z,12.63
2018-07-21T09:19:45.845Z,13.88
2018-07-21T09:24:43.625Z,15.70
2018-07-21T09:27:11.289Z,17.15
2018-07-21T09:29:39.086Z,19.48
2018-07-21T09:32:06.787Z,17.20
2018-07-21T09:34:34.581Z,19.15
2018-07-21T09:37:02.348Z,17.70
2018-07-21T09:39:30.112Z,17.67
2018-07-21T09:41:57.807Z,19.48
2018-07-21T09:44:25.530Z,18.48
2018-07-21T09:46:53.371Z,19.12
2018-07-21T09:49:21.087Z,17.67
2018-07-21T09:51:48.822Z,14.98
2018-07-21T09:54:16.609Z,13.70
2018-07-21T09:56:44.313Z,11.90
2018-07-21T09:59:12.028Z,13.62
2018-07-21T10:01:39.887Z,14.47
2018-07-21T10:04:07.532Z,14.10
2018-07-21T10:06:35.213Z,13.00
2018-07-21T10:09:03.043Z,15.25
2018-07-21T10:11:30.784Z,13.08
2018-07-21T10:13:58.728Z,11.57
2018-07-21T10:16:26.446Z,10.63
2018-07-21T10:18:54.235Z,10.40
2018-07-21T10:21:21.924Z,9.63
2018-07-21T10:23:49.561Z,10.00
2018-07-21T10:26:22.868Z,13.40
2018-07-21T10:28:56.082Z,12.70
2018-07-21T10:31:23.872Z,16.35
2018-07-21T10:33:51.576Z,14.15
2018-07-21T10:36:19.265Z,12.88
2018-07-21T10:38:49.201Z,10.05
2018-07-21T10:41:16.982Z,8.90
2018-07-21T10:43:44.838Z,9.20
2018-07-21T10:46:12.671Z,8.90
2018-07-21T10:48:40.502Z,8.48
2018-07-21T10:51:08.118Z,9.38
2018-07-21T10:53:35.818Z,10.50
2018-07-21T10:56:03.559Z,10.35
2018-07-21T10:58:31.729Z,10.32
2018-07-21T11:00:59.721Z,10.03
2018-07-21T11:03:27.391Z,12.58
2018-07-21T11:05:55.251Z,12.95
2018-07-21T11:08:22.914Z,10.98
2018-07-21T11:10:50.784Z,11.80
2018-07-21T11:13:18.479Z,13.25
2018-07-21T11:15:46.181Z,11.40
2018-07-21T11:18:13.852Z,13.55
2018-07-21T11:20:41.594Z,13.03
2018-07-21T11:23:09.353Z,17.50
2018-07-21T11:25:37.014Z,15.32
2018-07-21T11:28:04.845Z,14.80
2018-07-21T11:30:32.585Z,15.13
2018-07-21T11:33:00.402Z,17.82
2018-07-21T11:35:28.120Z,20.10
2018-07-21T11:37:55.902Z,16.30
2018-07-21T11:40:23.633Z,13.75
2018-07-21T11:42:51.469Z,15.43
2018-07-21T11:45:19.116Z,13.22
2018-07-21T11:47:46.815Z,14.63
2018-07-21T11:50:14.697Z,12.68
2018-07-21T11:52:42.405Z,11.65
2018-07-21T11:55:10.090Z,14.13
2018-07-21T11:57:37.793Z,15.58
2018-07-21T12:00:05.531Z,14.23
2018-07-21T12:02:33.336Z,13.55
2018-07-21T12:05:01.085Z,11.63
2018-07-21T12:07:28.823Z,14.43
2018-07-21T12:09:56.614Z,13.85
2018-07-21T12:12:24.371Z,11.43
2018-07-21T12:14:52.203Z,9.73
2018-07-21T12:17:19.880Z,9.00
2018-07-21T12:19:47.721Z,10.53
2018-07-21T12:22:15.514Z,12.00
2018-07-21T12:24:43.446Z,13.93
2018-07-21T12:27:11.194Z,14.55
2018-07-21T12:29:38.892Z,12.82
2018-07-21T12:32:06.603Z,12.40
2018-07-21T12:34:34.430Z,11.97
2018-07-21T12:37:02.170Z,13.45
2018-07-21T12:39:29.912Z,13.95
2018-07-21T12:41:57.664Z,13.88
2018-07-21T12:44:25.422Z,13.75
2018-07-21T12:46:53.212Z,11.25
2018-07-21T12:49:20.915Z,12.65
2018-07-21T12:51:48.598Z,11.20
2018-07-21T12:54:16.414Z,9.70
2018-07-21T12:56:44.265Z,8.95
2018-07-21T12:59:12.171Z,9.35
2018-07-21T13:01:39.838Z,9.28
2018-07-21T13:04:07.434Z,8.25
2018-07-21T13:06:35.203Z,9.28
2018-07-21T13:09:03.872Z,9.30
2018-07-21T13:11:31.642Z,8.50
2018-07-21T13:13:59.349Z,9.23
2018-07-21T13:16:27.081Z,7.90
2018-07-21T13:18:55.067Z,6.33
2018-07-21T13:21:22.752Z,6.87
2018-07-21T13:23:50.538Z,6.58
2018-07-21T13:26:18.269Z,8.93
2018-07-21T13:28:46.018Z,8.93
2018-07-21T13:31:13.712Z,8.45
2018-07-21T13:33:41.446Z,8.73
2018-07-21T13:36:09.133Z,7.87
2018-07-21T13:38:37.534Z,7.28
2018-07-21T13:41:05.697Z,6.65
2018-07-21T13:43:33.421Z,7.28
2018-07-21T13:46:01.126Z,6.03
2018-07-21T13:48:28.901Z,5.30
2018-07-21T13:50:56.697Z,5.28
2018-07-21T13:53:24.501Z,5.45
2018-07-21T13:55:52.194Z,6.60
2018-07-21T13:58:19.905Z,5.37
2018-07-21T14:00:47.837Z,4.37
2018-07-21T14:03:15.611Z,4.62
2018-07-21T14:05:43.355Z,4.50
2018-07-21T14:08:11.109Z,4.70
2018-07-21T14:10:38.861Z,4.55
2018-07-21T14:13:06.800Z,4.20
2018-07-21T14:15:34.894Z,4.03
2018-07-21T14:18:02.890Z,5.00
2018-07-21T14:20:30.685Z,5.47
2018-07-21T14:22:58.630Z,6.45
2018-07-21T14:25:26.401Z,5.08
2018-07-21T14:27:54.101Z,4.95
2018-07-21T14:30:21.845Z,4.25
2018-07-21T14:32:49.624Z,3.75
2018-07-21T14:35:17.570Z,5.20
2018-07-21T14:37:45.315Z,4.60
2018-07-21T14:40:13.055Z,4.42
2018-07-21T14:42:40.672Z,6.47
2018-07-21T14:45:08.442Z,7.10
2018-07-21T14:47:36.300Z,8.78
2018-07-21T14:50:04.152Z,7.30
2018-07-21T14:52:31.886Z,8.85
2018-07-21T14:54:59.767Z,8.10
2018-07-21T14:57:27.423Z,7.62
2018-07-21T14:59:55.267Z,7.45
2018-07-21T15:02:22.978Z,6.15
2018-07-21T15:04:50.790Z,6.72
2018-07-21T15:07:18.664Z,9.43
2018-07-21T15:09:46.368Z,9.08
2018-07-21T15:12:14.161Z,10.93
2018-07-21T15:14:41.982Z,10.05
2018-07-21T15:17:10.792Z,11.05
2018-07-21T15:19:38.688Z,9.30
2018-07-21T15:22:06.687Z,12.33
2018-07-21T15:24:34.414Z,12.18
2018-07-21T15:27:02.195Z,12.37
2018-07-21T15:29:29.926Z,12.37
2018-07-21T15:31:57.698Z,14.58
2018-07-21T15:34:25.457Z,12.80
2018-07-21T15:36:53.203Z,12.78
2018-07-21T15:39:20.942Z,11.97
2018-07-21T15:41:48.746Z,9.93
2018-07-21T15:44:16.586Z,12.53
2018-07-21T15:46:44.346Z,13.20
2018-07-21T15:49:12.646Z,10.85
2018-07-21T15:51:40.388Z,13.20
2018-07-21T15:54:08.835Z,12.28
2018-07-21T15:56:36.706Z,11.12
2018-07-21T15:59:04.378Z,10.95
2018-07-21T16:01:32.116Z,11.45
2018-07-21T16:03:59.878Z,10.58
2018-07-21T16:06:28.105Z,11.95
2018-07-21T16:08:55.814Z,11.38
2018-07-21T16:11:23.578Z,10.53
2018-07-21T16:13:51.300Z,8.80
2018-07-21T16:16:19.033Z,8.20
2018-07-21T16:18:46.758Z,6.30
2018-07-21T16:21:14.545Z,6.90
2018-07-21T16:23:42.201Z,7.53
2018-07-21T16:26:09.892Z,8.23
2018-07-21T16:28:37.777Z,7.42
2018-07-21T16:31:05.616Z,7.58
2018-07-21T16:33:33.398Z,6.90
2018-07-21T16:36:01.082Z,6.17
2018-07-21T16:38:28.953Z,6.53
2018-07-21T16:40:56.737Z,6.03
2018-07-21T16:43:24.522Z,6.60
2018-07-21T16:45:52.389Z,7.50
2018-07-21T16:48:20.187Z,9.50
2018-07-21T16:50:47.910Z,10.43
2018-07-21T16:53:15.755Z,11.18
2018-07-21T16:55:43.714Z,10.63
2018-07-21T16:58:11.494Z,12.73
2018-07-21T17:00:39.159Z,12.13
2018-07-21T17:03:18.196Z,10.53
2018-07-21T17:05:46.883Z,10.65
2018-07-21T17:08:14.622Z,11.45
2018-07-21T17:10:42.418Z,10.95
2018-07-21T17:13:10.215Z,9.20
2018-07-21T17:15:40.216Z,8.48
2018-07-21T17:18:12.058Z,10.95
2018-07-21T17:20:39.809Z,11.93
2018-07-21T17:23:13.445Z,11.75
2018-07-21T17:25:41.183Z,12.75
2018-07-21T17:28:08.885Z,12.50
2018-07-21T17:30:36.736Z,12.15
2018-07-21T17:33:04.493Z,10.55
2018-07-21T17:35:32.227Z,10.98
2018-07-21T17:37:59.991Z,10.78
2018-07-21T17:40:29.119Z,9.70
2018-07-21T17:42:56.861Z,8.65
2018-07-21T17:45:24.679Z,8.90
2018-07-21T17:47:52.288Z,7.28
2018-07-21T17:50:20.014Z,7.87
2018-07-21T17:52:47.763Z,7.50
2018-07-21T17:55:15.587Z,6.72
2018-07-21T17:57:43.430Z,7.03
2018-07-21T18:00:11.252Z,7.92
2018-07-21T18:02:39.012Z,7.62
2018-07-21T18:05:07.999Z,6.83
2018-07-21T18:07:35.824Z,8.28
2018-07-21T18:10:03.993Z,7.00
2018-07-21T18:12:32.560Z,7.08
2018-07-21T18:15:00.810Z,8.08
2018-07-21T18:17:28.702Z,10.15
2018-07-21T18:19:56.564Z,15.00
2018-07-21T18:22:24.318Z,14.50
2018-07-21T18:24:52.032Z,11.40
2018-07-21T18:27:19.826Z,9.30
2018-07-21T18:29:47.519Z,8.80
2018-07-21T18:32:15.435Z,10.28
2018-07-21T18:34:43.175Z,9.93
2018-07-21T18:37:10.921Z,10.20
2018-07-21T18:39:38.711Z,8.93
2018-07-21T18:42:06.474Z,9.00
2018-07-21T18:44:34.270Z,8.45
2018-07-21T18:47:02.471Z,7.72
2018-07-21T18:49:30.232Z,7.85
2018-07-21T18:51:58.126Z,8.58
2018-07-21T18:54:26.631Z,9.68
2018-07-21T18:56:55.425Z,10.68
2018-07-21T18:59:23.178Z,9.30
2018-07-21T19:01:50.863Z,9.18
2018-07-21T19:04:18.867Z,8.60
2018-07-21T19:06:46.602Z,8.98
2018-07-21T19:09:14.368Z,9.05
2018-07-21T19:11:42.260Z,9.28
2018-07-21T19:14:10.163Z,9.75
2018-07-21T19:16:40.396Z,10.55
2018-07-21T19:19:08.235Z,9.40
2018-07-21T19:21:35.951Z,8.60
2018-07-21T19:24:03.729Z,7.83
2018-07-21T19:26:36.941Z,8.35
2018-07-21T19:29:04.702Z,8.15
2018-07-21T19:31:32.462Z,7.45
2018-07-21T19:34:00.257Z,8.98
2018-07-21T19:36:28.073Z,8.63
2018-07-21T19:38:56.004Z,7.47
2018-07-21T19:41:29.431Z,7.00
2018-07-21T19:43:57.568Z,5.62
2018-07-21T19:46:25.306Z,5.55
2018-07-21T19:48:53.026Z,5.47
2018-07-21T19:51:20.775Z,5.75
2018-07-21T19:53:48.536Z,5.53
2018-07-21T19:56:18.322Z,5.20
2018-07-21T19:58:46.026Z,5.20
2018-07-21T20:01:13.851Z,6.83
2018-07-21T20:03:41.581Z,6.37
2018-07-21T20:06:09.941Z,5.97
2018-07-21T20:08:37.701Z,5.62
2018-07-21T20:11:05.439Z,6.85
2018-07-21T20:13:33.195Z,7.37
2018-07-21T20:16:00.875Z,8.95
2018-07-21T20:18:28.678Z,8.83
2018-07-21T20:20:56.524Z,7.85
2018-07-21T20:23:24.166Z,7.22
2018-07-21T20:25:51.921Z,6.90
2018-07-21T20:28:19.707Z,5.72
2018-07-21T20:30:47.411Z,5.25
2018-07-21T20:33:15.272Z,4.70
2018-07-21T20:35:43.000Z,5.37
2018-07-21T20:38:10.965Z,4.80
2018-07-21T20:40:39.034Z,4.58
2018-07-21T20:43:06.729Z,4.90
2018-07-21T20:45:34.420Z,6.37
2018-07-21T20:48:02.129Z,6.28
2018-07-21T20:50:30.647Z,7.87
2018-07-21T20:52:58.457Z,7.72
2018-07-21T20:55:26.309Z,7.28
2018-07-21T20:57:55.302Z,7.83
2018-07-21T21:00:23.108Z,7.20
2018-07-21T21:02:50.803Z,6.90
2018-07-21T21:05:18.585Z,6.05
2018-07-21T21:07:46.341Z,6.30
2018-07-21T21:10:13.911Z,6.65
2018-07-21T21:12:41.740Z,7.65
2018-07-21T21:15:09.453Z,6.62
2018-07-21T21:17:37.275Z,6.13
2018-07-21T21:20:05.003Z,5.95
2018-07-21T21:22:32.760Z,5.65
2018-07-21T21:25:00.453Z,5.97
2018-07-21T21:27:28.162Z,4.85
2018-07-21T21:29:55.876Z,3.95
2018-07-21T21:32:23.796Z,4.00
2018-07-21T21:34:51.485Z,4.00
2018-07-21T21:37:19.829Z,3.90
2018-07-21T21:39:47.547Z,3.92
2018-07-21T21:42:15.417Z,3.20
2018-07-21T21:44:43.070Z,3.62
2018-07-21T21:47:10.778Z,3.72
2018-07-21T21:49:38.695Z,3.53
2018-07-21T21:52:06.405Z,3.50
2018-07-21T21:54:34.131Z,3.72
2018-07-21T21:57:01.856Z,3.87
2018-07-21T21:59:30.409Z,3.95
2018-07-21T22:01:58.159Z,5.62
2018-07-21T22:04:26.083Z,4.40
2018-07-21T22:06:53.759Z,6.12
2018-07-21T22:09:21.425Z,5.00
2018-07-21T22:11:49.182Z,4.83
2018-07-21T22:14:16.873Z,4.87
2018-07-21T22:16:44.591Z,4.00
2018-07-21T22:19:12.297Z,4.28
2018-07-21T22:21:40.197Z,3.80
2018-07-21T22:24:08.218Z,5.40
2018-07-21T22:26:36.419Z,5.85
2018-07-21T22:29:04.260Z,4.33
2018-07-21T22:31:32.042Z,6.30
2018-07-21T22:33:59.910Z,7.53
2018-07-21T22:36:28.088Z,7.30
2018-07-21T22:38:55.874Z,7.25
2018-07-21T22:41:26.355Z,7.08
2018-07-21T22:43:54.077Z,7.37
2018-07-21T22:46:21.825Z,7.28
2018-07-21T22:48:49.628Z,7.25
2018-07-21T22:51:17.325Z,6.12
2018-07-21T22:53:45.076Z,6.95
2018-07-21T22:56:12.793Z,6.67
2018-07-21T22:58:40.622Z,6.35
2018-07-21T23:01:08.449Z,5.83
2018-07-21T23:03:36.520Z,5.58
2018-07-21T23:06:04.251Z,5.33
2018-07-21T23:08:32.039Z,4.47
2018-07-21T23:11:00.018Z,4.55
2018-07-21T23:13:28.051Z,5.00
2018-07-21T23:15:55.836Z,4.83
2018-07-21T23:18:23.519Z,4.67
2018-07-21T23:20:51.327Z,4.08
2018-07-21T23:23:21.538Z,3.98
2018-07-21T23:25:49.780Z,4.42
2018-07-21T23:28:17.594Z,4.65
2018-07-21T23:30:45.484Z,4.40
2018-07-21T23:33:14.447Z,4.70
2018-07-21T23:35:43.449Z,4.50
2018-07-21T23:38:11.729Z,4.60
2018-07-21T23:40:40.595Z,4.33
2018-07-21T23:43:08.677Z,4.40
2018-07-21T23:45:36.477Z,4.72
2018-07-21T23:48:04.184Z,4.28
2018-07-21T23:50:32.117Z,6.78
2018-07-21T23:53:00.041Z,5.95
2018-07-21T23:55:27.773Z,5.80
2018-07-21T23:57:55.528Z,5.47
